Time;durP1;ratioP1;P1;durP2;ratioP2;P2;SDS_P1;SDS_P2;PMS_P1;PMS_P2;Temp;Humidity;BMP_temperature;BMP_pressure;BME280_temperature;BME280_humidity;BME280_pressure;Samples;Min_cycle;Max_cycle;Signal;HPM_P1;HPM_P2
2021/07/10 00:00:21;;;;;;;35.08;24.48;;;;;;;12.52;100.00;96371.38;1017936;29;20283;-69
2021/07/10 00:00:51;;;;;;;30.85;23.35;;;;;;;12.53;100.00;96369.53;1018637;29;20156;-68
2021/07/10 00:01:22;;;;;;;30.80;24.08;;;;;;;12.53;100.00;96369.53;1019258;29;20482;-68
2021/07/10 00:01:52;;;;;;;35.25;24.58;;;;;;;12.49;100.00;96371.91;1022729;28;20027;-68
2021/07/10 00:02:23;;;;;;;32.45;25.15;;;;;;;12.53;100.00;96372.19;1022245;29;20032;-68
2021/07/10 00:02:56;;;;;;;32.35;23.50;;;;;;;12.54;100.00;96369.31;1019094;29;20024;-69
2021/07/10 00:03:27;;;;;;;33.05;24.13;;;;;;;12.52;100.00;96368.75;1018990;29;20776;-68
2021/07/10 00:03:57;;;;;;;29.40;24.42;;;;;;;12.48;100.00;96365.84;1014828;29;20256;-68
2021/07/10 00:04:28;;;;;;;31.17;23.85;;;;;;;12.54;100.00;96364.03;1019037;29;20027;-68
2021/07/10 00:05:01;;;;;;;31.70;24.05;;;;;;;12.53;100.00;96366.91;1015104;29;20024;-68
2021/07/10 00:05:32;;;;;;;31.00;24.20;;;;;;;12.53;100.00;96369.53;1014606;29;20028;-68
2021/07/10 00:06:02;;;;;;;31.42;23.20;;;;;;;12.52;100.00;96367.97;1014321;29;20276;-68
2021/07/10 00:06:33;;;;;;;32.88;24.73;;;;;;;12.53;100.00;96369.53;1019146;29;20032;-68
2021/07/10 00:07:04;;;;;;;29.77;22.70;;;;;;;12.52;100.00;96375.88;1014737;29;20040;-68
2021/07/10 00:07:35;;;;;;;29.60;23.90;;;;;;;12.53;100.00;96372.97;1012273;29;20028;-68
2021/07/10 00:08:05;;;;;;;30.48;23.50;;;;;;;12.53;100.00;96366.91;1015060;29;20851;-68
2021/07/10 00:08:36;;;;;;;40.50;25.45;;;;;;;12.50;100.00;96371.63;1011511;29;20402;-69
2021/07/10 00:09:06;;;;;;;30.70;24.20;;;;;;;12.50;100.00;96378.75;1012049;29;20020;-68
2021/07/10 00:09:37;;;;;;;40.75;25.50;;;;;;;12.50;100.00;96369.00;1022927;28;20031;-68
2021/07/10 00:10:12;;;;;;;29.10;23.90;;;;;;;12.52;100.00;96366.13;1018912;29;20027;-68
2021/07/10 00:10:42;;;;;;;34.03;27.05;;;;;;;12.50;100.00;96368.22;1018105;29;20041;-67
2021/07/10 00:11:13;;;;;;;32.03;25.65;;;;;;;12.48;100.00;96371.13;1012334;29;20271;-68
2021/07/10 00:11:43;;;;;;;36.60;24.65;;;;;;;12.49;100.00;96366.63;1011773;29;20036;-68
2021/07/10 00:12:16;;;;;;;33.63;23.83;;;;;;;12.49;100.00;96369.28;1015523;29;20039;-68
2021/07/10 00:12:47;;;;;;;33.15;24.80;;;;;;;12.49;100.00;96377.94;1015964;29;20280;-68
2021/07/10 00:13:17;;;;;;;33.22;23.95;;;;;;;12.49;100.00;96369.28;1018227;29;20039;-68
2021/07/10 00:13:48;;;;;;;30.33;24.75;;;;;;;12.47;100.00;96364.28;1018865;29;20056;-68
2021/07/10 00:14:18;;;;;;;30.80;24.65;;;;;;;12.48;100.00;96370.31;1018698;29;20032;-69
2021/07/10 00:14:49;;;;;;;29.27;23.58;;;;;;;12.49;100.00;96375.31;1015069;29;20043;-68
2021/07/10 00:15:20;;;;;;;32.15;25.70;;;;;;;12.49;100.00;96366.63;1011212;29;20044;-69
2021/07/10 00:15:50;;;;;;;29.00;24.13;;;;;;;12.43;100.00;96363.19;1008113;29;20105;-67
2021/07/10 00:16:21;;;;;;;32.85;25.15;;;;;;;12.47;100.00;96364.28;1015109;29;21005;-69
2021/07/10 00:16:51;;;;;;;33.80;24.50;;;;;;;12.46;100.00;96357.41;1015256;29;20047;-68
2021/07/10 00:17:22;;;;;;;33.08;25.10;;;;;;;12.46;100.00;96364.53;1018355;29;20076;-69
2021/07/10 00:17:53;;;;;;;35.47;24.60;;;;;;;12.38;100.00;96352.66;1014208;29;20118;-69
2021/07/10 00:18:23;;;;;;;30.52;24.55;;;;;;;12.38;100.00;96354.50;1018841;29;20098;-69
2021/07/10 00:18:54;;;;;;;33.80;24.23;;;;;;;12.41;100.00;96365.31;1019047;29;20032;-68
2021/07/10 00:19:24;;;;;;;27.65;23.30;;;;;;;12.43;100.00;96365.81;1015645;29;20035;-68
2021/07/10 00:19:55;;;;;;;31.20;24.40;;;;;;;12.43;100.00;96362.41;1014831;29;20032;-68
2021/07/10 00:20:25;;;;;;;35.05;24.20;;;;;;;12.39;100.00;96356.06;1015089;29;20642;-68
2021/07/10 00:20:55;;;;;;;32.20;23.77;;;;;;;12.41;100.00;96367.16;1007633;29;20385;-68
2021/07/10 00:21:29;;;;;;;36.47;23.42;;;;;;;12.40;100.00;96363.69;1007020;29;20072;-68
2021/07/10 00:22:02;;;;;;;33.05;23.45;;;;;;;12.39;100.00;96367.41;1011015;29;20028;-68
2021/07/10 00:22:32;;;;;;;26.00;22.85;;;;;;;12.40;100.00;96363.69;1015102;29;20806;-68
2021/07/10 00:23:03;;;;;;;28.33;22.73;;;;;;;12.38;100.00;96354.50;1013140;29;20502;-68
2021/07/10 00:23:34;;;;;;;29.83;23.73;;;;;;;12.41;100.00;96360.03;1015201;29;20691;-69
2021/07/10 00:24:04;;;;;;;33.88;24.13;;;;;;;12.42;100.00;96356.34;1011174;29;20037;-69
2021/07/10 00:24:35;;;;;;;28.75;22.48;;;;;;;12.25;100.00;96338.13;1018822;29;20747;-68
2021/07/10 00:25:10;;;;;;;37.28;24.15;;;;;;;12.36;100.00;96356.59;1018993;29;20050;-68
2021/07/10 00:25:43;;;;;;;31.10;23.58;;;;;;;12.38;100.00;96357.13;1018061;29;20032;-69
2021/07/10 00:26:13;;;;;;;34.97;26.25;;;;;;;12.36;100.00;96356.59;1013664;29;20268;-72
2021/07/10 00:26:44;;;;;;;30.70;24.60;;;;;;;12.36;100.00;96356.59;1010909;29;20331;-68
2021/07/10 00:27:15;;;;;;;31.27;25.42;;;;;;;12.33;100.00;96355.25;1011595;29;20119;-67
2021/07/10 00:27:45;;;;;;;29.77;23.25;;;;;;;12.31;100.00;96356.56;1018325;29;20692;-68
2021/07/10 00:28:16;;;;;;;26.15;21.83;;;;;;;12.30;100.00;96355.78;1014742;29;20474;-68
2021/07/10 00:28:46;;;;;;;30.38;21.90;;;;;;;12.26;100.00;96347.59;1015059;29;20032;-68
2021/07/10 00:29:17;;;;;;;35.75;24.13;;;;;;;12.29;100.00;96353.41;1022780;29;20031;-69
2021/07/10 00:29:48;;;;;;;33.58;24.35;;;;;;;12.20;100.00;96342.56;1014763;29;20036;-68
2021/07/10 00:30:20;;;;;;;40.92;26.02;;;;;;;12.15;100.00;96339.94;1018883;29;20758;-68
2021/07/10 00:30:50;;;;;;;28.60;22.67;;;;;;;12.22;100.00;96351.03;1018626;29;20504;-69
2021/07/10 00:31:21;;;;;;;29.98;23.05;;;;;;;12.22;100.00;96343.13;1014373;29;20316;-67
2021/07/10 00:31:51;;;;;;;29.92;24.02;;;;;;;12.20;100.00;96353.88;1019689;28;20661;-69
2021/07/10 00:32:22;;;;;;;35.47;24.23;;;;;;;12.18;100.00;96348.13;1026367;28;20023;-69
2021/07/10 00:32:52;;;;;;;31.20;24.50;;;;;;;12.17;100.00;96349.16;1022810;28;20039;-68
2021/07/10 00:33:23;;;;;;;32.13;23.88;;;;;;;12.19;100.00;96352.31;1015088;29;20039;-69
2021/07/10 00:33:53;;;;;;;32.92;25.85;;;;;;;12.16;100.00;96349.41;1015786;29;20059;-68
2021/07/10 00:34:23;;;;;;;32.53;23.73;;;;;;;12.15;100.00;96347.84;1022656;29;20031;-68
2021/07/10 00:34:54;;;;;;;32.85;23.42;;;;;;;12.14;100.00;96351.50;1015611;29;20032;-69
2021/07/10 00:35:24;;;;;;;29.90;23.30;;;;;;;12.12;100.00;96343.88;1018846;29;20062;-68
2021/07/10 00:35:57;;;;;;;33.60;23.67;;;;;;;12.16;100.00;96349.41;1014918;29;20028;-68
2021/07/10 00:36:28;;;;;;;30.55;23.35;;;;;;;12.17;100.00;96348.34;1012676;29;20027;-68
2021/07/10 00:36:58;;;;;;;34.30;23.73;;;;;;;12.18;100.00;96348.13;1016725;29;20784;-68
2021/07/10 00:37:29;;;;;;;33.55;25.05;;;;;;;12.19;100.00;96346.25;1014522;29;20085;-69
2021/07/10 00:37:59;;;;;;;28.50;23.60;;;;;;;12.21;100.00;96347.59;1016804;29;20028;-68
2021/07/10 00:38:30;;;;;;;31.92;23.25;;;;;;;12.21;100.00;96341.56;1010933;29;20021;-68
2021/07/10 00:39:00;;;;;;;29.08;22.45;;;;;;;12.20;100.00;96347.84;1007370;29;20021;-67
2021/07/10 00:39:31;;;;;;;30.90;24.38;;;;;;;12.20;100.00;96346.00;1015175;29;20069;-68
2021/07/10 00:40:03;;;;;;;32.03;22.50;;;;;;;12.21;100.00;96346.81;1013244;29;20024;-67
2021/07/10 00:40:33;;;;;;;28.35;23.33;;;;;;;12.15;100.00;96334.69;1018669;29;20034;-68
2021/07/10 00:41:05;;;;;;;32.58;23.58;;;;;;;12.20;100.00;96343.38;1014016;29;20292;-68
2021/07/10 00:41:35;;;;;;;32.35;23.10;;;;;;;12.21;100.00;96341.56;1014492;29;20280;-69
2021/07/10 00:42:06;;;;;;;32.05;24.15;;;;;;;12.16;100.00;96341.53;1015076;29;20055;-69
2021/07/10 00:42:37;;;;;;;29.00;21.95;;;;;;;12.13;100.00;96336.78;1019022;29;20439;-69
2021/07/10 00:43:07;;;;;;;25.70;22.00;;;;;;;12.19;100.00;96341.78;1010766;29;20021;-68
2021/07/10 00:43:38;;;;;;;29.23;21.60;;;;;;;12.18;100.00;96337.59;1007492;29;20261;-69
2021/07/10 00:44:08;;;;;;;29.80;22.05;;;;;;;12.17;100.00;96345.72;1007378;29;20029;-68
2021/07/10 00:44:39;;;;;;;27.17;22.05;;;;;;;12.16;100.00;96341.53;1015045;29;20036;-68
2021/07/10 00:45:10;;;;;;;29.27;21.98;;;;;;;12.18;100.00;96339.44;1014668;29;20027;-68
2021/07/10 00:45:43;;;;;;;29.27;21.77;;;;;;;12.18;100.00;96337.59;1015160;29;20040;-69
2021/07/10 00:46:17;;;;;;;28.67;21.92;;;;;;;12.16;100.00;96346.78;1015201;29;20337;-68
2021/07/10 00:46:47;;;;;;;31.75;21.35;;;;;;;12.16;100.00;96341.53;1015398;29;20272;-68
2021/07/10 00:47:18;;;;;;;28.33;22.42;;;;;;;12.14;100.00;96333.06;1015971;29;20280;-68
2021/07/10 00:47:48;;;;;;;29.73;22.83;;;;;;;12.14;100.00;96339.16;1011238;29;20037;-68
2021/07/10 00:48:19;;;;;;;31.73;22.90;;;;;;;12.13;100.00;96332.28;1011414;29;20033;-69
2021/07/10 00:48:49;;;;;;;35.45;22.80;;;;;;;12.11;100.00;96336.25;1012335;29;20537;-69
2021/07/10 00:49:20;;;;;;;32.25;23.80;;;;;;;12.03;100.00;96327.00;1014950;29;20846;-68
2021/07/10 00:49:53;;;;;;;30.67;23.20;;;;;;;12.11;100.00;96333.63;1019034;29;20019;-68
2021/07/10 00:50:24;;;;;;;32.10;22.35;;;;;;;12.03;100.00;96322.50;1018617;29;20143;-68
2021/07/10 00:50:55;;;;;;;30.85;23.65;;;;;;;12.10;100.00;96335.44;1014965;29;20756;-68
2021/07/10 00:51:25;;;;;;;28.73;22.92;;;;;;;12.10;100.00;96327.53;1010776;29;20305;-68
2021/07/10 00:51:59;;;;;;;33.38;25.10;;;;;;;12.10;100.00;96332.81;1007350;29;20483;-67
2021/07/10 00:52:29;;;;;;;33.78;24.70;;;;;;;12.11;100.00;96329.16;1011426;29;20342;-69
2021/07/10 00:53:02;;;;;;;37.83;25.30;;;;;;;12.01;100.00;96319.38;1014090;29;20028;-68
2021/07/10 00:53:33;;;;;;;32.25;24.02;;;;;;;12.08;100.00;96328.88;1018867;29;20055;-69
2021/07/10 00:54:03;;;;;;;30.80;23.58;;;;;;;12.05;100.00;96321.50;1018794;29;22871;-69
2021/07/10 00:54:33;;;;;;;32.30;24.55;;;;;;;12.01;100.00;96319.38;1019616;29;20693;-68
2021/07/10 00:55:04;;;;;;;32.97;23.95;;;;;;;12.03;100.00;96325.16;1014600;29;20087;-69
2021/07/10 00:55:38;;;;;;;31.63;23.38;;;;;;;12.03;100.00;96327.78;1015068;29;20102;-69
2021/07/10 00:56:08;;;;;;;29.42;23.65;;;;;;;12.02;100.00;96320.94;1011208;29;20032;-69
2021/07/10 00:56:39;;;;;;;32.42;24.05;;;;;;;11.97;100.00;96318.31;1011732;29;20277;-69
2021/07/10 00:57:09;;;;;;;32.45;23.75;;;;;;;12.01;100.00;96319.38;1010566;29;20039;-68
2021/07/10 00:57:41;;;;;;;30.23;24.30;;;;;;;12.02;100.00;96325.41;1018758;29;20040;-68
2021/07/10 00:58:11;;;;;;;36.90;24.85;;;;;;;11.97;100.00;96317.50;1019203;29;20016;-68
2021/07/10 00:58:42;;;;;;;31.67;24.92;;;;;;;12.02;100.00;96328.84;1014470;29;20282;-68
2021/07/10 00:59:13;;;;;;;30.40;23.60;;;;;;;12.05;100.00;96326.75;1011449;29;20045;-69
2021/07/10 00:59:44;;;;;;;35.78;26.80;;;;;;;11.99;100.00;96321.47;1015232;29;20035;-68
2021/07/10 01:00:19;;;;;;;34.60;24.85;;;;;;;11.95;100.00;96317.75;1007946;29;20499;-68
2021/07/10 01:00:49;;;;;;;34.90;23.95;;;;;;;12.00;100.00;96323.06;1018532;29;20283;-68
2021/07/10 01:01:20;;;;;;;30.38;24.42;;;;;;;11.99;100.00;96318.81;1015000;29;20264;-68
2021/07/10 01:01:50;;;;;;;27.85;23.30;;;;;;;11.96;100.00;96321.97;1015199;29;20039;-68
2021/07/10 01:02:21;;;;;;;30.10;22.27;;;;;;;12.02;100.00;96331.47;1023077;29;20480;-66
2021/07/10 01:02:52;;;;;;;31.08;22.88;;;;;;;12.00;100.00;96328.31;1023135;29;20624;-69
2021/07/10 01:03:22;;;;;;;29.67;24.00;;;;;;;11.99;100.00;96320.66;1022523;29;20016;-67
2021/07/10 01:03:53;;;;;;;35.47;23.55;;;;;;;11.99;100.00;96326.72;1023164;29;20262;-68
2021/07/10 01:04:23;;;;;;;31.05;23.50;;;;;;;11.98;100.00;96321.72;1023079;29;20676;-68
2021/07/10 01:04:54;;;;;;;31.08;24.23;;;;;;;11.99;100.00;96318.81;1018496;29;20039;-68
2021/07/10 01:05:28;;;;;;;30.85;22.73;;;;;;;11.93;100.00;96309.31;1018976;29;20040;-68
2021/07/10 01:05:59;;;;;;;30.50;23.95;;;;;;;11.97;100.00;96318.31;1015192;29;20030;-68
2021/07/10 01:06:33;;;;;;;27.88;23.02;;;;;;;11.97;100.00;96318.31;1013407;29;20279;-68
2021/07/10 01:07:03;;;;;;;34.38;23.27;;;;;;;11.98;100.00;96321.72;1014873;29;20710;-68
2021/07/10 01:07:34;;;;;;;32.90;23.40;;;;;;;11.95;100.00;96314.34;1015281;29;20452;-68
2021/07/10 01:08:05;;;;;;;32.35;25.58;;;;;;;11.97;100.00;96318.31;1018956;29;20425;-68
2021/07/10 01:08:35;;;;;;;27.45;22.38;;;;;;;11.97;100.00;96313.06;1019161;29;20039;-68
2021/07/10 01:09:06;;;;;;;32.45;23.65;;;;;;;11.95;100.00;96320.38;1018948;29;20608;-68
2021/07/10 01:09:36;;;;;;;31.27;23.17;;;;;;;11.95;100.00;96309.09;1018931;29;20027;-68
2021/07/10 01:10:08;;;;;;;31.42;23.30;;;;;;;11.90;100.00;96312.47;1011379;29;20035;-68
2021/07/10 01:10:38;;;;;;;29.67;22.85;;;;;;;11.84;100.00;96305.63;1015463;29;20027;-68
2021/07/10 01:11:09;;;;;;;32.20;23.80;;;;;;;11.92;100.00;96314.84;1015316;29;20275;-68
2021/07/10 01:11:40;;;;;;;32.10;23.00;;;;;;;11.94;100.00;96312.78;1013006;29;20106;-68
2021/07/10 01:12:11;;;;;;;31.13;22.35;;;;;;;11.92;100.00;96315.63;1011258;29;20036;-69
2021/07/10 01:12:46;;;;;;;27.20;22.42;;;;;;;11.93;100.00;96311.16;1007296;29;20105;-68
2021/07/10 01:13:17;;;;;;;31.02;21.98;;;;;;;11.87;100.00;96307.75;1007205;29;20340;-69
2021/07/10 01:13:47;;;;;;;34.63;23.10;;;;;;;11.88;100.00;96308.53;1007855;29;20285;-68
2021/07/10 01:14:19;;;;;;;29.17;23.08;;;;;;;11.86;100.00;96305.34;1011967;29;20040;-69
2021/07/10 01:14:50;;;;;;;37.50;23.50;;;;;;;11.88;100.00;96311.94;1015213;29;20028;-68
2021/07/10 01:15:21;;;;;;;36.72;24.50;;;;;;;11.89;100.00;96310.09;1011184;29;20271;-69
2021/07/10 01:15:52;;;;;;;35.72;23.27;;;;;;;11.88;100.00;96305.91;1011080;29;20055;-68
2021/07/10 01:16:22;;;;;;;29.83;22.45;;;;;;;11.86;100.00;96310.63;1011256;29;20271;-68
2021/07/10 01:16:53;;;;;;;28.80;21.77;;;;;;;11.85;100.00;96309.81;1013717;29;20032;-69
2021/07/10 01:17:23;;;;;;;29.40;22.38;;;;;;;11.84;100.00;96310.88;1018387;29;20091;-69
2021/07/10 01:17:57;;;;;;;31.92;23.40;;;;;;;11.85;100.00;96309.81;1015069;29;20032;-68
2021/07/10 01:18:27;;;;;;;28.13;21.30;;;;;;;11.85;100.00;96309.81;1014304;29;20529;-68
2021/07/10 01:18:57;;;;;;;31.75;22.30;;;;;;;11.85;100.00;96304.56;1015619;29;20275;-68
2021/07/10 01:19:33;;;;;;;33.03;22.95;;;;;;;11.80;100.00;96301.88;1011541;29;20033;-68
2021/07/10 01:20:10;;;;;;;33.75;23.73;;;;;;;11.85;100.00;96309.03;1013298;29;20546;-68
2021/07/10 01:20:52;;;;;;;28.73;22.35;;;;;;;11.86;100.00;96305.34;1011126;29;20448;-69
2021/07/10 01:21:25;;;;;;;30.58;23.10;;;;;;;11.79;100.00;96302.94;1010533;29;20269;-68
2021/07/10 01:21:56;;;;;;;29.40;23.50;;;;;;;11.81;100.00;96311.38;1017577;29;20762;-68
2021/07/10 01:22:27;;;;;;;29.52;23.00;;;;;;;11.80;100.00;96315.03;1021047;29;20663;-68
2021/07/10 01:22:57;;;;;;;29.70;21.17;;;;;;;11.80;100.00;96307.94;1023167;29;20027;-68
2021/07/10 01:23:28;;;;;;;33.83;23.52;;;;;;;11.80;100.00;96312.38;1013500;29;20573;-69
2021/07/10 01:23:58;;;;;;;32.30;22.98;;;;;;;11.79;100.00;96310.81;1011030;29;20028;-68
2021/07/10 01:24:29;;;;;;;27.48;21.80;;;;;;;11.77;100.00;96312.94;1011074;29;20154;-68
2021/07/10 01:24:59;;;;;;;30.38;22.85;;;;;;;11.77;100.00;96307.66;1015240;29;20032;-68
2021/07/10 01:25:29;;;;;;;35.03;23.20;;;;;;;11.78;100.00;96314.50;1022568;29;20034;-69
2021/07/10 01:26:00;;;;;;;31.00;22.08;;;;;;;11.77;100.00;96308.44;1014987;29;20027;-67
2021/07/10 01:26:31;;;;;;;30.33;21.67;;;;;;;11.76;100.00;96308.69;1018753;29;20485;-68
2021/07/10 01:27:01;;;;;;;31.23;23.27;;;;;;;11.74;100.00;96308.97;1018113;29;20035;-68
2021/07/10 01:27:32;;;;;;;32.17;21.98;;;;;;;11.72;100.00;96305.78;1018614;29;20055;-68
2021/07/10 01:28:02;;;;;;;31.90;23.02;;;;;;;11.70;100.00;96304.44;1024560;28;20136;-67
2021/07/10 01:28:33;;;;;;;45.00;23.77;;;;;;;11.71;100.00;96308.69;1026235;28;20407;-69
2021/07/10 01:29:03;;;;;;;32.42;23.52;;;;;;;11.68;100.00;96312.59;1020765;29;20035;-68
2021/07/10 01:29:34;;;;;;;34.50;23.58;;;;;;;11.67;100.00;96305.78;1022969;29;20520;-68
2021/07/10 01:30:08;;;;;;;31.52;24.67;;;;;;;11.62;100.00;96299.69;1019105;29;20030;-69
2021/07/10 01:30:38;;;;;;;33.00;23.75;;;;;;;11.62;100.00;96297.06;1015482;29;20276;-68
2021/07/10 01:31:09;;;;;;;32.85;23.90;;;;;;;11.67;100.00;96304.97;1018967;29;20615;-69
2021/07/10 01:31:39;;;;;;;31.33;23.05;;;;;;;11.67;100.00;96307.59;1020443;29;20079;-69
2021/07/10 01:32:12;;;;;;;32.85;24.75;;;;;;;11.66;100.00;96301.53;1020282;29;20024;-68
2021/07/10 01:32:45;;;;;;;36.25;25.00;;;;;;;11.67;100.00;96303.16;1018918;29;20120;-68
2021/07/10 01:33:16;;;;;;;36.75;25.35;;;;;;;11.68;100.00;96303.94;1018888;29;20271;-69
2021/07/10 01:33:47;;;;;;;31.73;24.13;;;;;;;11.65;100.00;96296.56;1014528;29;20371;-68
2021/07/10 01:34:17;;;;;;;33.30;23.25;;;;;;;11.63;100.00;96298.63;1019549;29;20813;-68
2021/07/10 01:34:48;;;;;;;33.55;23.83;;;;;;;11.63;100.00;96296.00;1018778;29;20398;-68
2021/07/10 01:35:19;;;;;;;32.42;24.27;;;;;;;11.61;100.00;96298.91;1018893;29;20107;-66
2021/07/10 01:35:49;;;;;;;30.70;22.65;;;;;;;11.61;100.00;96298.91;1014842;29;20101;-69
2021/07/10 01:36:22;;;;;;;30.98;22.80;;;;;;;11.51;100.00;96283.88;1014907;29;20154;-68
2021/07/10 01:36:53;;;;;;;32.90;22.98;;;;;;;11.59;100.00;96294.94;1007295;29;20033;-68
2021/07/10 01:37:23;;;;;;;34.55;24.92;;;;;;;11.50;100.00;96287.56;1007014;29;20795;-68
2021/07/10 01:37:54;;;;;;;35.60;24.83;;;;;;;11.58;100.00;96294.16;1015626;29;20541;-68
2021/07/10 01:38:27;;;;;;;33.97;23.70;;;;;;;11.60;100.00;96293.88;1015465;29;20036;-69
2021/07/10 01:38:58;;;;;;;35.53;25.50;;;;;;;11.57;100.00;96293.38;1018630;29;20342;-69
2021/07/10 01:39:28;;;;;;;33.15;23.48;;;;;;;11.57;100.00;96288.09;1011145;29;20071;-68
2021/07/10 01:39:59;;;;;;;39.15;27.15;;;;;;;11.59;100.00;96292.31;1007717;29;20032;-69
2021/07/10 01:40:29;;;;;;;34.40;26.52;;;;;;;11.59;100.00;96289.69;1010772;29;20033;-68
2021/07/10 01:40:59;;;;;;;39.30;25.35;;;;;;;11.60;100.00;96291.25;1011319;29;20857;-68
2021/07/10 01:41:45;;;;;;;40.22;25.33;;;;;;;11.55;100.00;96282.31;1019264;29;20036;-68
2021/07/10 01:42:15;;;;;;;35.42;23.75;;;;;;;11.58;100.00;96294.16;1015944;29;20485;-68
2021/07/10 01:42:46;;;;;;;28.90;23.08;;;;;;;11.53;100.00;96275.72;1010851;29;20295;-68
2021/07/10 01:43:16;;;;;;;37.78;24.30;;;;;;;11.55;100.00;96287.56;1006587;29;20110;-69
2021/07/10 01:43:47;;;;;;;36.50;24.75;;;;;;;11.57;100.00;96287.31;1008373;29;20033;-68
2021/07/10 01:44:17;;;;;;;34.53;25.30;;;;;;;11.55;100.00;96279.69;1012029;29;20035;-68
2021/07/10 01:44:49;;;;;;;32.33;23.08;;;;;;;11.52;100.00;96274.94;1017869;29;20040;-69
2021/07/10 01:45:20;;;;;;;33.83;24.23;;;;;;;11.55;100.00;96281.53;1022523;29;20069;-68
2021/07/10 01:45:51;;;;;;;36.38;23.27;;;;;;;11.52;100.00;96276.78;1019466;29;20331;-69
2021/07/10 01:46:21;;;;;;;30.85;24.48;;;;;;;11.53;100.00;96273.88;1014817;29;20327;-68
2021/07/10 01:46:54;;;;;;;31.65;23.75;;;;;;;11.52;100.00;96280.19;1014796;29;20032;-68
2021/07/10 01:47:24;;;;;;;36.58;25.05;;;;;;;11.50;100.00;96279.66;1013155;29;20039;-67
2021/07/10 01:47:55;;;;;;;32.92;24.00;;;;;;;11.52;100.00;96279.41;1019201;29;20279;-68
2021/07/10 01:48:25;;;;;;;38.85;24.83;;;;;;;11.52;100.00;96279.41;1022529;29;20136;-68
2021/07/10 01:48:56;;;;;;;33.97;23.88;;;;;;;11.52;100.00;96280.19;1022454;29;20107;-68
2021/07/10 01:49:26;;;;;;;39.05;24.88;;;;;;;11.51;100.00;96275.19;1022207;29;20051;-69
2021/07/10 01:49:57;;;;;;;32.80;23.45;;;;;;;11.50;100.00;96281.47;1022628;29;20035;-68
2021/07/10 01:50:27;;;;;;;31.73;24.08;;;;;;;11.49;100.00;96275.44;1022788;29;20074;-69
2021/07/10 01:50:58;;;;;;;31.88;22.90;;;;;;;11.49;100.00;96279.91;1022358;29;20027;-68
2021/07/10 01:51:28;;;;;;;34.75;24.33;;;;;;;11.49;100.00;96277.28;1018393;29;20070;-68
2021/07/10 01:51:59;;;;;;;33.17;22.95;;;;;;;11.45;100.00;96271.75;1018855;29;20710;-68
2021/07/10 01:52:29;;;;;;;32.17;21.92;;;;;;;11.49;100.00;96274.66;1018264;29;20078;-68
2021/07/10 01:53:00;;;;;;;39.80;24.63;;;;;;;11.48;100.00;96273.06;1018881;29;20095;-69
2021/07/10 01:53:30;;;;;;;35.00;23.45;;;;;;;11.49;100.00;96275.44;1022359;29;20031;-69
2021/07/10 01:54:00;;;;;;;28.85;21.75;;;;;;;11.50;100.00;96274.41;1022367;29;20039;-67
2021/07/10 01:54:31;;;;;;;34.00;23.63;;;;;;;11.52;100.00;96279.41;1022786;29;20129;-69
2021/07/10 01:55:07;;;;;;;34.75;23.77;;;;;;;11.46;100.00;96268.06;1022606;29;20107;-69
2021/07/10 01:55:40;;;;;;;30.35;21.50;;;;;;;11.48;100.00;96279.13;1018334;29;20071;-68
2021/07/10 01:56:13;;;;;;;28.27;22.48;;;;;;;11.51;100.00;96278.63;1018611;29;20268;-68
2021/07/10 01:56:44;;;;;;;40.00;24.23;;;;;;;11.50;100.00;96276.22;1018678;29;20035;-68
2021/07/10 01:57:15;;;;;;;24.38;20.75;;;;;;;11.45;100.00;96266.47;1018614;29;20328;-68
2021/07/10 01:57:47;;;;;;;30.88;21.85;;;;;;;11.48;100.00;96280.97;1019204;29;20336;-69
2021/07/10 01:58:18;;;;;;;32.53;22.25;;;;;;;11.46;100.00;96273.31;1014784;29;20514;-68
2021/07/10 01:58:50;;;;;;;30.27;21.92;;;;;;;11.48;100.00;96284.38;1014594;29;20316;-69
2021/07/10 01:59:20;;;;;;;33.58;22.92;;;;;;;11.43;100.00;96271.19;1014020;29;20169;-68
2021/07/10 01:59:50;;;;;;;29.92;21.45;;;;;;;11.46;100.00;96275.16;1018698;29;20733;-68
2021/07/10 02:00:26;;;;;;;34.55;22.85;;;;;;;11.39;100.00;96264.88;1014767;29;20016;-68
2021/07/10 02:00:59;;;;;;;30.45;23.08;;;;;;;11.45;100.00;96274.38;1010775;29;20033;-68
2021/07/10 02:01:32;;;;;;;35.17;23.63;;;;;;;11.38;100.00;96263.28;1010937;29;20269;-68
2021/07/10 02:02:02;;;;;;;38.78;23.88;;;;;;;11.42;100.00;96274.88;1011884;29;20027;-69
2021/07/10 02:02:33;;;;;;;26.90;20.30;;;;;;;11.42;100.00;96271.47;1015637;29;20303;-69
2021/07/10 02:03:03;;;;;;;29.85;21.73;;;;;;;11.42;100.00;96272.25;1015125;29;20505;-69
2021/07/10 02:03:34;;;;;;;29.83;22.17;;;;;;;11.42;100.00;96267.00;1010809;29;20383;-69
2021/07/10 02:04:08;;;;;;;31.88;22.27;;;;;;;11.40;100.00;96266.47;1014610;29;20479;-68
2021/07/10 02:04:45;;;;;;;28.30;21.60;;;;;;;11.40;100.00;96263.03;1012089;29;20040;-69
2021/07/10 02:05:17;;;;;;;31.33;22.88;;;;;;;11.35;100.00;96263.81;1010987;29;20316;-69
2021/07/10 02:05:48;;;;;;;26.30;20.63;;;;;;;11.36;100.00;96259.34;1010751;29;20292;-69
2021/07/10 02:06:19;;;;;;;29.08;21.20;;;;;;;11.26;100.00;96244.28;1008312;29;20268;-68
2021/07/10 02:06:49;;;;;;;28.02;21.23;;;;;;;11.24;100.00;96249.81;1015100;29;20048;-69
2021/07/10 02:07:19;;;;;;;29.08;21.17;;;;;;;11.29;100.00;96260.34;1017891;29;20112;-68
2021/07/10 02:07:50;;;;;;;28.98;21.23;;;;;;;11.25;100.00;96253.22;1010587;29;20032;-68
2021/07/10 02:08:21;;;;;;;33.97;21.98;;;;;;;11.26;100.00;96260.06;1010416;29;20020;-68
2021/07/10 02:08:54;;;;;;;41.17;22.58;;;;;;;11.26;100.00;96254.81;1014635;29;20020;-68
2021/07/10 02:09:24;;;;;;;31.58;21.83;;;;;;;11.25;100.00;96263.75;1015251;29;20032;-68
2021/07/10 02:09:57;;;;;;;32.90;23.25;;;;;;;11.24;100.00;96251.66;1010975;29;20276;-69
2021/07/10 02:10:29;;;;;;;31.33;22.92;;;;;;;11.25;100.00;96254.03;1015288;29;20444;-69
2021/07/10 02:11:00;;;;;;;33.10;24.15;;;;;;;11.23;100.00;96260.56;1022749;29;20270;-69
2021/07/10 02:11:30;;;;;;;31.60;24.02;;;;;;;11.23;100.00;96250.88;1015926;29;20778;-69
2021/07/10 02:12:00;;;;;;;33.80;23.58;;;;;;;11.21;100.00;96257.41;1014593;29;20107;-69
2021/07/10 02:12:31;;;;;;;34.22;23.83;;;;;;;11.20;100.00;96250.56;1010721;29;20032;-68
2021/07/10 02:13:05;;;;;;;31.10;22.73;;;;;;;11.21;100.00;96252.16;1010644;29;20134;-68
2021/07/10 02:13:36;;;;;;;33.28;23.25;;;;;;;11.22;100.00;96253.72;1011384;29;20045;-68
2021/07/10 02:14:07;;;;;;;35.63;24.05;;;;;;;11.19;100.00;96259.50;1014638;29;20761;-69
2021/07/10 02:14:40;;;;;;;30.08;21.35;;;;;;;11.10;100.00;96230.31;1015435;29;20272;-69
2021/07/10 02:15:11;;;;;;;30.98;21.17;;;;;;;11.15;100.00;96248.69;1011235;29;20992;-69
2021/07/10 02:15:42;;;;;;;29.30;22.10;;;;;;;11.06;100.00;96240.50;1010716;29;20032;-68
2021/07/10 02:16:18;;;;;;;32.45;22.13;;;;;;;11.07;100.00;96239.47;1014802;29;20264;-68
2021/07/10 02:16:51;;;;;;;32.08;22.30;;;;;;;11.09;100.00;96249.72;1015746;29;20036;-68
2021/07/10 02:17:22;;;;;;;25.05;20.60;;;;;;;11.07;100.00;96251.81;1013637;29;20264;-68
2021/07/10 02:17:53;;;;;;;36.25;23.63;;;;;;;11.04;100.00;96245.22;1009740;29;20758;-68
2021/07/10 02:18:23;;;;;;;29.13;21.65;;;;;;;11.04;100.00;96239.97;1006440;29;20803;-69
2021/07/10 02:18:54;;;;;;;30.98;22.33;;;;;;;11.04;100.00;96247.84;1011074;29;20275;-68
2021/07/10 02:19:24;;;;;;;30.63;22.27;;;;;;;11.04;100.00;96245.22;1010704;29;20085;-66
2021/07/10 02:19:54;;;;;;;28.58;22.80;;;;;;;11.00;100.00;96235.47;1012662;29;20024;-69
2021/07/10 02:20:26;;;;;;;32.72;23.45;;;;;;;11.00;100.00;96235.47;1014755;29;20521;-68
2021/07/10 02:20:56;;;;;;;31.65;22.65;;;;;;;10.97;100.00;96236.78;1014879;29;20123;-69
2021/07/10 02:21:33;;;;;;;32.92;23.17;;;;;;;10.97;100.00;96236.00;1017247;29;20689;-68
2021/07/10 02:22:06;;;;;;;29.05;22.20;;;;;;;10.87;100.00;96225.41;1018572;29;20294;-69